Flugplatz Weser-Wümme

Für EDWM sind keine METAR/TAF Berichte vorhanden.
Es werden die Flugwettermeldungen vom Flugplatz Bremen in 28 km Entfernung angezeigt.

Bericht für EDDW

vom 31.03. um 22:50 UTC

Wind 3 kt aus 220°

Sichtweite 10 km oder mehr

gute Sicht, keine Wolken < 5000 ft, keine CB, keine Wettererscheinungen (CAVOK)

Temperatur -1.0°C

Taupunkt -4.0°C

Luftfeuchtigkeit 80%

Luftdruck 1027 hPa

EDDW 312250Z 22003KT CAVOK M01/M04 Q1027

Prognose für EDDW

vom 31.03. um 17:00 UTC

Am 31.03. zwischen 18:00 UTC und 01:00 UTC

Wind 4 kt aus 300°

Sichtweite 10 km oder mehr

aufgelockert bewölkt in 4000 ft


Zwischen 01:00 und 04:00 UTC übergehend zu

Wind 5 kt aus 230°

Sichtweite 10 km oder mehr

aufgelockert bewölkt in 4000 ft


Zwischen 06:00 UTC und 09:00 UTC zeitweise

aufgebrochene Bewölkung in 1200 ft


Zwischen 07:00 und 09:00 UTC übergehend zu

Wind 10 kt aus 270°

Sichtweite 10 km oder mehr

aufgelockert bewölkt in 4000 ft


Zwischen 16:00 und 18:00 UTC übergehend zu

Wind 5 kt aus 250°

Sichtweite 10 km oder mehr

aufgelockert bewölkt in 4000 ft

TAF EDDW 311700Z 3118/0118 30004KT 9999 SCT040 BECMG 0101/0104 23005KT TEMPO 0106/0109 BKN012 BECMG 0107/0109 27010KT BECMG 0116/0118 25005KT
Impressum